Terminal Aerodrome Forecast
Issued by NWS

Home | Current Version | Previous Version | Text Only | Print | Product List | Glossary On
Versions: 1 2 3 4 5 6 7 8 9 10 11 12 13 14 15 16 17 18
000
FTUS43 KICT 251739
TAFSLN
TAF
KSLN 251739Z 2518/2618 25007KT P6SM FEW250
     FM252300 19008KT P6SM FEW100 FEW200
     FM260900 18006KT P6SM OVC100
     FM261700 25005KT P6SM SCT200=

USA.gov is the U.S. government's official web portal to all federal, state and local government web resources and services.